createdAt,value
2019-06-10T00:01:47.241Z,7.63
2019-06-10T00:04:13.317Z,8.20
2019-06-10T00:06:41.525Z,8.73
2019-06-10T00:09:08.126Z,9.40
2019-06-10T00:11:34.412Z,8.43
2019-06-10T00:14:02.467Z,7.73
2019-06-10T00:16:30.820Z,8.67
2019-06-10T00:18:56.444Z,8.27
2019-06-10T00:21:22.513Z,8.57
2019-06-10T00:23:48.564Z,7.80
2019-06-10T00:26:14.627Z,7.63
2019-06-10T00:28:40.777Z,8.77
2019-06-10T00:31:06.959Z,8.43
2019-06-10T00:33:33.339Z,8.20
2019-06-10T00:36:01.710Z,8.80
2019-06-10T00:38:27.368Z,8.10
2019-06-10T00:40:53.428Z,8.50
2019-06-10T00:43:21.419Z,8.97
2019-06-10T00:45:47.460Z,8.37
2019-06-10T00:48:24.285Z,8.37
2019-06-10T00:50:41.888Z,8.10
2019-06-10T00:53:09.923Z,9.17
2019-06-10T00:55:36.225Z,8.63
2019-06-10T00:58:02.936Z,8.00
2019-06-10T01:00:31.777Z,8.40
2019-06-10T01:02:58.009Z,9.07
2019-06-10T01:05:24.079Z,9.23
2019-06-10T01:07:50.852Z,10.40
2019-06-10T01:10:17.291Z,10.70
2019-06-10T01:12:43.360Z,9.50
2019-06-10T01:15:12.100Z,10.77
2019-06-10T01:17:37.591Z,10.10
2019-06-10T01:20:05.732Z,10.37
2019-06-10T01:22:32.033Z,10.90
2019-06-10T01:24:58.123Z,9.93
2019-06-10T01:27:24.205Z,10.80
2019-06-10T01:29:51.091Z,10.30
2019-06-10T01:32:17.688Z,9.67
2019-06-10T01:34:43.916Z,11.33
2019-06-10T01:37:11.754Z,11.00
2019-06-10T01:39:37.977Z,11.17
2019-06-10T01:42:04.040Z,12.43
2019-06-10T01:44:31.053Z,10.67
2019-06-10T01:46:57.381Z,10.50
2019-06-10T01:49:23.440Z,11.17
2019-06-10T01:51:51.637Z,12.40
2019-06-10T01:54:18.440Z,12.63
2019-06-10T01:56:44.735Z,11.30
2019-06-10T01:59:12.525Z,11.00
2019-06-10T02:01:57.352Z,11.10
2019-06-10T02:04:23.403Z,11.73
2019-06-10T02:06:51.130Z,12.07
2019-06-10T02:09:18.782Z,12.00
2019-06-10T02:11:45.395Z,11.37
2019-06-10T02:14:14.427Z,12.00
2019-06-10T02:16:41.434Z,11.53
2019-06-10T02:19:07.491Z,13.00
2019-06-10T02:21:33.551Z,11.10
2019-06-10T02:24:01.017Z,10.20
2019-06-10T02:26:27.296Z,11.10
2019-06-10T02:28:53.343Z,11.43
2019-06-10T02:31:29.065Z,11.27
2019-06-10T02:33:47.400Z,12.10
2019-06-10T02:36:17.319Z,11.60
2019-06-10T02:38:44.235Z,10.53
2019-06-10T02:41:09.398Z,11.60
2019-06-10T02:43:37.867Z,10.33
2019-06-10T02:46:04.949Z,11.07
2019-06-10T02:48:34.809Z,10.77
2019-06-10T02:51:03.897Z,11.80
2019-06-10T02:53:32.161Z,11.90
2019-06-10T02:55:57.710Z,12.43
2019-06-10T02:58:30.424Z,13.23
2019-06-10T03:00:54.652Z,13.07
2019-06-10T03:03:31.647Z,11.53
2019-06-10T03:05:47.677Z,12.20
2019-06-10T03:08:13.732Z,12.30
2019-06-10T03:10:39.806Z,11.90
2019-06-10T03:13:05.864Z,12.40
2019-06-10T03:15:33.826Z,12.90
2019-06-10T03:18:02.298Z,10.87
2019-06-10T03:20:28.421Z,11.20
2019-06-10T03:22:54.629Z,12.10
2019-06-10T03:25:22.998Z,12.10
2019-06-10T03:27:48.668Z,12.30
2019-06-10T03:30:20.873Z,11.30
2019-06-10T03:32:46.944Z,12.90
2019-06-10T03:35:13.249Z,13.53
2019-06-10T03:37:39.586Z,13.00
2019-06-10T03:40:06.249Z,12.93
2019-06-10T03:42:32.544Z,12.23
2019-06-10T03:44:58.788Z,12.60
2019-06-10T03:47:27.152Z,11.40
2019-06-10T03:49:56.006Z,12.07
2019-06-10T03:52:23.536Z,11.40
2019-06-10T03:54:48.847Z,11.33
2019-06-10T03:57:14.916Z,10.13
2019-06-10T03:59:42.189Z,12.00
2019-06-10T04:02:08.352Z,10.67
2019-06-10T04:04:34.432Z,11.00
2019-06-10T04:07:03.575Z,11.33
2019-06-10T04:09:28.869Z,12.03
2019-06-10T04:11:55.120Z,10.40
2019-06-10T04:14:22.412Z,12.03
2019-06-10T04:16:49.150Z,11.97
2019-06-10T04:19:15.220Z,12.40
2019-06-10T04:21:43.287Z,11.87
2019-06-10T04:24:09.249Z,13.10
2019-06-10T04:26:35.300Z,12.80
2019-06-10T04:29:02.484Z,9.23
2019-06-10T04:31:29.763Z,9.67
2019-06-10T04:33:56.003Z,9.90
2019-06-10T04:36:24.500Z,8.70
2019-06-10T04:38:52.351Z,8.53
2019-06-10T04:41:18.341Z,8.97
2019-06-10T04:43:44.596Z,10.23
2019-06-10T04:46:12.589Z,9.70
2019-06-10T04:48:38.632Z,8.67
2019-06-10T04:51:04.697Z,10.00
2019-06-10T04:53:32.997Z,10.10
2019-06-10T04:55:58.725Z,8.80
2019-06-10T04:58:27.577Z,8.03
2019-06-10T05:00:52.744Z,8.60
2019-06-10T05:03:18.951Z,11.17
2019-06-10T05:05:45.184Z,9.00
2019-06-10T05:08:13.167Z,10.10
2019-06-10T05:10:39.260Z,9.87
2019-06-10T05:13:05.333Z,9.30
2019-06-10T05:15:34.634Z,10.83
2019-06-10T05:17:59.377Z,10.97
2019-06-10T05:20:43.673Z,10.80
2019-06-10T05:22:53.406Z,10.57
2019-06-10T05:25:20.370Z,11.87
2019-06-10T05:27:47.543Z,11.97
2019-06-10T05:30:14.020Z,9.93
2019-06-10T05:32:40.073Z,9.03
2019-06-10T05:35:06.248Z,8.70
2019-06-10T05:37:33.855Z,8.87
2019-06-10T05:40:02.184Z,10.43
2019-06-10T05:42:29.309Z,10.73
2019-06-10T05:44:56.271Z,10.53
2019-06-10T05:47:25.049Z,10.90
2019-06-10T05:49:52.799Z,10.37
2019-06-10T05:52:18.344Z,9.07
2019-06-10T05:54:44.412Z,10.40
2019-06-10T05:57:12.083Z,11.20
2019-06-10T05:59:38.348Z,11.03
2019-06-10T06:02:04.423Z,10.40
2019-06-10T06:04:32.574Z,11.67
2019-06-10T06:06:58.446Z,13.60
2019-06-10T06:09:25.145Z,10.90
2019-06-10T06:11:52.399Z,11.27
2019-06-10T06:14:18.608Z,11.63
2019-06-10T06:16:44.681Z,10.07
2019-06-10T06:19:12.601Z,12.80
2019-06-10T06:21:42.684Z,12.00
2019-06-10T06:24:06.823Z,12.10
2019-06-10T06:26:37.421Z,11.60
2019-06-10T06:29:02.236Z,13.73
2019-06-10T06:31:28.480Z,12.90
2019-06-10T06:33:54.542Z,10.73
2019-06-10T06:36:22.657Z,10.60
2019-06-10T06:38:48.573Z,10.63
2019-06-10T06:41:14.637Z,11.20
2019-06-10T06:43:44.857Z,11.20
2019-06-10T06:46:08.664Z,10.47
2019-06-10T06:48:38.506Z,11.07
2019-06-10T06:51:08.190Z,11.13
2019-06-10T06:53:42.103Z,10.97
2019-06-10T06:55:58.725Z,11.77
2019-06-10T06:58:24.784Z,10.10
2019-06-10T07:01:01.871Z,12.23
2019-06-10T07:03:18.840Z,12.70
2019-06-10T07:05:45.245Z,14.43
2019-06-10T07:08:13.163Z,13.30
2019-06-10T07:10:41.412Z,14.37
2019-06-10T07:13:07.747Z,14.83
2019-06-10T07:15:41.100Z,14.17
2019-06-10T07:18:08.436Z,11.83
2019-06-10T07:20:37.607Z,10.90
2019-06-10T07:23:02.803Z,12.20
2019-06-10T07:25:28.932Z,10.10
2019-06-10T07:27:54.989Z,12.07
2019-06-10T07:30:23.037Z,14.50
2019-06-10T07:32:49.020Z,14.63
2019-06-10T07:35:15.099Z,15.20
2019-06-10T07:37:43.950Z,14.70
2019-06-10T07:40:09.220Z,13.53
2019-06-10T07:42:36.331Z,13.27
2019-06-10T07:45:05.351Z,13.83
2019-06-10T07:47:32.671Z,12.07
2019-06-10T07:49:59.422Z,13.00
2019-06-10T07:52:25.477Z,14.13
2019-06-10T07:54:52.910Z,12.77
2019-06-10T07:57:19.291Z,12.10
2019-06-10T07:59:46.071Z,12.93
2019-06-10T08:02:12.487Z,13.70
2019-06-10T08:04:39.770Z,13.40
2019-06-10T08:07:06.633Z,13.10
2019-06-10T08:09:35.577Z,13.50
2019-06-10T08:12:03.481Z,13.53
2019-06-10T08:14:28.629Z,12.87
2019-06-10T08:16:54.679Z,12.47
2019-06-10T08:19:33.821Z,13.50
2019-06-10T08:21:49.646Z,14.33
2019-06-10T08:24:15.950Z,13.00
2019-06-10T08:26:43.670Z,12.83
2019-06-10T08:29:12.560Z,12.90
2019-06-10T08:31:38.818Z,13.47
2019-06-10T08:34:05.117Z,12.33
2019-06-10T08:36:33.289Z,12.70
2019-06-10T08:38:59.142Z,12.87
2019-06-10T08:41:25.212Z,11.93
2019-06-10T08:43:52.877Z,12.40
2019-06-10T08:46:19.229Z,12.43
2019-06-10T08:48:47.698Z,12.70
2019-06-10T08:51:13.256Z,11.10
2019-06-10T08:53:42.545Z,10.47
2019-06-10T08:56:08.160Z,10.97
2019-06-10T08:58:34.636Z,10.50
2019-06-10T09:01:02.275Z,11.60
2019-06-10T09:03:29.112Z,12.00
2019-06-10T09:05:57.685Z,11.60
2019-06-10T09:08:23.928Z,9.70
2019-06-10T09:10:54.191Z,9.50
2019-06-10T09:13:17.984Z,9.20
2019-06-10T09:15:50.844Z,8.57
2019-06-10T09:18:14.510Z,7.80
2019-06-10T09:20:41.466Z,7.40
2019-06-10T09:23:21.012Z,7.50
2019-06-10T09:25:35.957Z,8.57
2019-06-10T09:28:02.490Z,7.10
2019-06-10T09:30:28.989Z,6.80
2019-06-10T09:32:56.497Z,7.33
2019-06-10T09:35:24.087Z,8.37
2019-06-10T09:37:53.167Z,8.00
2019-06-10T09:40:19.367Z,8.20
2019-06-10T09:42:48.117Z,8.23
2019-06-10T09:45:14.407Z,7.40
2019-06-10T09:47:46.746Z,8.37
2019-06-10T09:50:12.333Z,8.57
2019-06-10T09:52:38.492Z,8.43
2019-06-10T09:55:05.663Z,8.37
2019-06-10T09:57:32.160Z,7.90
2019-06-10T09:59:58.496Z,7.57
2019-06-10T10:02:24.657Z,7.70
2019-06-10T10:04:53.892Z,8.07
2019-06-10T10:07:19.276Z,7.43
2019-06-10T10:09:49.809Z,8.03
2019-06-10T10:12:13.537Z,8.20
2019-06-10T10:14:39.593Z,8.77
2019-06-10T10:17:05.674Z,7.77
2019-06-10T10:19:32.491Z,7.40
2019-06-10T10:21:58.734Z,7.30
2019-06-10T10:24:24.942Z,8.30
2019-06-10T10:26:55.934Z,7.60
2019-06-10T10:29:19.459Z,7.10
2019-06-10T10:31:48.982Z,7.67
2019-06-10T10:34:13.869Z,7.60
2019-06-10T10:36:40.291Z,7.00
2019-06-10T10:39:08.072Z,6.93
2019-06-10T10:41:34.728Z,6.43
2019-06-10T10:44:02.914Z,7.27
2019-06-10T10:46:28.760Z,6.63
2019-06-10T10:48:56.481Z,6.50
2019-06-10T10:51:23.184Z,6.90
2019-06-10T10:54:16.943Z,6.60
2019-06-10T10:56:17.851Z,6.67
2019-06-10T10:58:46.965Z,6.40
2019-06-10T11:01:15.036Z,7.07
2019-06-10T11:03:44.046Z,6.63
2019-06-10T11:06:12.634Z,5.53
2019-06-10T11:08:38.073Z,6.23
2019-06-10T11:11:05.895Z,5.97
2019-06-10T11:13:34.044Z,5.83
2019-06-10T11:16:03.326Z,6.33
2019-06-10T11:18:28.998Z,6.23
2019-06-10T11:20:55.571Z,5.63
2019-06-10T11:23:22.818Z,5.73
2019-06-10T11:25:51.047Z,6.30
2019-06-10T11:28:17.909Z,6.27
2019-06-10T11:30:45.252Z,5.60
2019-06-10T11:33:11.902Z,5.20
2019-06-10T11:35:38.849Z,5.23
2019-06-10T11:38:05.489Z,5.43
2019-06-10T11:40:34.215Z,4.50
2019-06-10T11:43:01.120Z,5.53
2019-06-10T11:45:27.736Z,4.93
2019-06-10T11:47:55.476Z,4.30
2019-06-10T11:50:23.258Z,4.73
2019-06-10T11:52:50.205Z,5.20
2019-06-10T11:55:19.239Z,4.97
2019-06-10T11:57:45.567Z,5.50
2019-06-10T12:00:16.643Z,5.40
2019-06-10T12:02:42.353Z,5.00
2019-06-10T12:05:09.548Z,4.63
2019-06-10T12:07:35.609Z,4.70
2019-06-10T12:10:08.161Z,5.07
2019-06-10T12:12:34.222Z,4.77
2019-06-10T12:15:01.471Z,4.60
2019-06-10T12:17:41.768Z,5.23
2019-06-10T12:19:59.586Z,4.50
2019-06-10T12:22:23.693Z,4.93
2019-06-10T12:24:50.320Z,4.60
2019-06-10T12:27:16.605Z,4.30
2019-06-10T12:29:42.682Z,4.60
2019-06-10T12:32:08.736Z,4.47
2019-06-10T12:34:34.814Z,4.23
2019-06-10T12:37:10.020Z,4.13
2019-06-10T12:39:28.846Z,4.47
2019-06-10T12:41:57.893Z,4.10
2019-06-10T12:44:22.942Z,4.00
2019-06-10T12:46:49.044Z,4.73
2019-06-10T12:49:18.257Z,4.60
2019-06-10T12:51:43.109Z,3.90
2019-06-10T12:54:09.192Z,3.83
2019-06-10T12:56:35.240Z,3.83
2019-06-10T12:59:06.801Z,4.17
2019-06-10T13:01:29.454Z,3.57
2019-06-10T13:03:55.689Z,3.67
2019-06-10T13:06:23.565Z,3.60
2019-06-10T13:08:53.123Z,4.20
2019-06-10T13:11:19.454Z,3.93
2019-06-10T13:13:45.880Z,3.90
2019-06-10T13:16:14.149Z,3.97
2019-06-10T13:18:39.915Z,4.63
2019-06-10T13:21:11.607Z,4.00
2019-06-10T13:23:36.093Z,3.97
2019-06-10T13:26:07.164Z,3.63
2019-06-10T13:28:32.267Z,4.43
2019-06-10T13:30:58.999Z,4.17
2019-06-10T13:33:25.243Z,4.07
2019-06-10T13:35:53.529Z,3.87
2019-06-10T13:38:19.376Z,3.90
2019-06-10T13:40:45.442Z,4.03
2019-06-10T13:43:12.344Z,4.17
2019-06-10T13:45:39.266Z,4.43
2019-06-10T13:48:08.335Z,4.03
2019-06-10T13:50:33.383Z,4.00
2019-06-10T13:53:00.589Z,4.20
2019-06-10T13:55:27.618Z,3.90
2019-06-10T13:57:53.844Z,4.10
2019-06-10T14:00:22.876Z,3.80
2019-06-10T14:02:52.124Z,4.00
2019-06-10T14:05:18.465Z,4.60
2019-06-10T14:07:44.885Z,4.00
2019-06-10T14:10:17.781Z,4.10
2019-06-10T14:12:40.312Z,3.73
2019-06-10T14:15:09.180Z,4.53
2019-06-10T14:17:34.640Z,4.27
2019-06-10T14:20:01.746Z,4.27
2019-06-10T14:22:28.029Z,4.00
2019-06-10T14:24:54.098Z,4.00
2019-06-10T14:27:21.647Z,4.50
2019-06-10T14:29:48.224Z,4.57
2019-06-10T14:32:15.763Z,4.03
2019-06-10T14:34:42.145Z,4.53
2019-06-10T14:37:08.340Z,4.50
2019-06-10T14:39:34.388Z,4.47
2019-06-10T14:42:00.465Z,5.10
2019-06-10T14:44:26.530Z,4.50
2019-06-10T14:46:53.015Z,4.27
2019-06-10T14:49:19.247Z,3.93
2019-06-10T14:51:45.312Z,4.23
2019-06-10T14:54:12.128Z,4.00
2019-06-10T14:56:50.568Z,4.40
2019-06-10T14:59:07.544Z,3.73
2019-06-10T15:01:33.765Z,3.83
2019-06-10T15:03:59.825Z,3.77
2019-06-10T15:06:25.892Z,4.63
2019-06-10T15:08:53.334Z,5.07
2019-06-10T15:11:20.100Z,5.03
2019-06-10T15:13:46.981Z,4.40
2019-06-10T15:16:14.254Z,4.80
2019-06-10T15:18:40.428Z,4.13
2019-06-10T15:21:06.492Z,4.63
2019-06-10T15:23:32.696Z,4.13
2019-06-10T15:25:58.851Z,4.17
2019-06-10T15:28:25.013Z,4.10
2019-06-10T15:30:52.429Z,4.43
2019-06-10T15:33:19.721Z,4.07
2019-06-10T15:35:45.929Z,4.37
2019-06-10T15:38:14.869Z,4.40
2019-06-10T15:40:39.957Z,4.70
2019-06-10T15:43:06.423Z,4.60
2019-06-10T15:45:32.755Z,4.57
2019-06-10T15:47:58.814Z,5.50
2019-06-10T15:50:27.487Z,4.73
2019-06-10T15:52:52.884Z,4.50
2019-06-10T15:55:42.460Z,4.93
2019-06-10T15:57:46.915Z,4.63
2019-06-10T16:00:17.696Z,4.63
2019-06-10T16:02:41.680Z,4.23
2019-06-10T16:05:08.164Z,5.10
2019-06-10T16:07:34.248Z,4.50
2019-06-10T16:10:02.714Z,4.17
2019-06-10T16:12:28.268Z,4.40
2019-06-10T16:14:54.329Z,3.80
2019-06-10T16:17:21.125Z,4.50
2019-06-10T16:19:47.261Z,5.07
2019-06-10T16:22:14.202Z,4.30
2019-06-10T16:24:42.316Z,5.00
2019-06-10T16:27:08.548Z,4.83
2019-06-10T16:29:34.628Z,4.30
2019-06-10T16:32:02.525Z,5.27
2019-06-10T16:34:29.845Z,5.50
2019-06-10T16:36:56.314Z,4.60
2019-06-10T16:39:24.177Z,5.40
2019-06-10T16:41:52.286Z,4.40
2019-06-10T16:44:19.966Z,5.40
2019-06-10T16:46:46.820Z,4.80
2019-06-10T16:49:13.024Z,5.03
2019-06-10T16:51:39.191Z,4.67
2019-06-10T16:54:05.325Z,5.30
2019-06-10T16:56:33.611Z,5.20
2019-06-10T16:58:59.367Z,5.27
2019-06-10T17:01:27.313Z,5.20
2019-06-10T17:03:53.459Z,5.47
2019-06-10T17:06:22.020Z,4.67
2019-06-10T17:08:47.493Z,5.37
2019-06-10T17:11:13.547Z,5.20
2019-06-10T17:13:42.065Z,5.17
2019-06-10T17:16:07.671Z,6.20
2019-06-10T17:18:33.941Z,6.03
2019-06-10T17:21:02.659Z,5.50
2019-06-10T17:23:33.347Z,5.77
2019-06-10T17:25:56.638Z,5.93
2019-06-10T17:28:28.326Z,6.60
2019-06-10T17:30:53.058Z,5.47
2019-06-10T17:33:22.058Z,5.60
2019-06-10T17:35:47.669Z,5.63
2019-06-10T17:38:13.739Z,5.80
2019-06-10T17:40:39.908Z,6.03
2019-06-10T17:43:06.072Z,5.70
2019-06-10T17:45:32.260Z,7.27
2019-06-10T17:47:58.400Z,5.57
2019-06-10T17:50:25.286Z,5.67
2019-06-10T17:52:53.386Z,5.80
2019-06-10T17:55:19.805Z,5.37
2019-06-10T17:57:47.533Z,5.13
2019-06-10T18:00:14.911Z,5.77
2019-06-10T18:02:42.629Z,6.53
2019-06-10T18:05:09.336Z,6.10
2019-06-10T18:07:35.815Z,5.70
2019-06-10T18:10:04.580Z,5.50
2019-06-10T18:12:32.965Z,5.77
2019-06-10T18:14:58.697Z,6.00
2019-06-10T18:17:25.922Z,6.00
2019-06-10T18:19:53.276Z,5.50
2019-06-10T18:22:19.625Z,5.63
2019-06-10T18:24:45.759Z,4.77
2019-06-10T18:27:12.782Z,5.77
2019-06-10T18:29:39.088Z,5.40
2019-06-10T18:32:05.284Z,5.73
2019-06-10T18:34:34.574Z,5.67
2019-06-10T18:36:59.357Z,5.20
2019-06-10T18:39:25.419Z,4.53
2019-06-10T18:41:52.882Z,5.50
2019-06-10T18:44:23.263Z,5.47
2019-06-10T18:46:47.700Z,5.37
2019-06-10T18:49:13.824Z,5.53
2019-06-10T18:51:39.949Z,6.00
2019-06-10T18:54:06.044Z,6.13
2019-06-10T18:56:34.301Z,6.50
2019-06-10T18:59:13.483Z,6.20
2019-06-10T19:01:28.288Z,6.43
2019-06-10T19:03:54.399Z,5.50
2019-06-10T19:06:22.792Z,5.90
2019-06-10T19:08:48.451Z,6.00
2019-06-10T19:11:14.497Z,6.20
2019-06-10T19:13:43.328Z,6.57
2019-06-10T19:16:08.536Z,6.07
2019-06-10T19:18:36.000Z,5.17
2019-06-10T19:21:04.177Z,5.97
2019-06-10T19:23:30.334Z,5.70
2019-06-10T19:25:56.412Z,6.53
2019-06-10T19:28:23.015Z,6.50
2019-06-10T19:30:49.321Z,5.80
2019-06-10T19:33:15.384Z,6.23
2019-06-10T19:35:43.625Z,6.10
2019-06-10T19:38:09.447Z,5.87
2019-06-10T19:40:36.865Z,6.10
2019-06-10T19:43:03.486Z,5.63
2019-06-10T19:45:31.948Z,6.37
2019-06-10T19:47:57.620Z,6.87
2019-06-10T19:50:23.685Z,6.83
2019-06-10T19:52:51.639Z,6.70
2019-06-10T19:55:17.821Z,6.20
2019-06-10T19:57:43.975Z,7.40
2019-06-10T20:00:12.670Z,6.80
2019-06-10T20:02:39.848Z,6.37
2019-06-10T20:05:06.824Z,7.47
2019-06-10T20:07:33.982Z,7.83
2019-06-10T20:10:02.684Z,8.00
2019-06-10T20:12:28.124Z,7.03
2019-06-10T20:14:56.840Z,7.53
2019-06-10T20:17:22.774Z,6.50
2019-06-10T20:19:49.007Z,6.37
2019-06-10T20:22:15.085Z,7.03
2019-06-10T20:24:43.712Z,5.70
2019-06-10T20:27:09.092Z,7.10
2019-06-10T20:29:35.764Z,6.67
2019-06-10T20:32:02.440Z,7.07
2019-06-10T20:34:28.596Z,7.10
2019-06-10T20:36:54.674Z,6.77
2019-06-10T20:39:24.459Z,7.30
2019-06-10T20:41:52.289Z,6.70
2019-06-10T20:44:16.675Z,6.60
2019-06-10T20:46:43.483Z,7.10
2019-06-10T20:49:13.376Z,6.67
2019-06-10T20:51:50.262Z,7.03
2019-06-10T20:54:06.675Z,6.30
2019-06-10T20:56:33.666Z,6.67
2019-06-10T20:59:00.028Z,5.90
2019-06-10T21:01:26.181Z,6.50
2019-06-10T21:03:54.232Z,6.40
2019-06-10T21:06:22.518Z,5.90
2019-06-10T21:08:51.966Z,6.93
2019-06-10T21:11:18.128Z,6.63
2019-06-10T21:13:47.749Z,7.33
2019-06-10T21:16:12.599Z,8.07
2019-06-10T21:18:40.204Z,7.13
2019-06-10T21:21:06.495Z,7.10
2019-06-10T21:23:32.562Z,7.60
2019-06-10T21:25:58.608Z,7.07
2019-06-10T21:28:24.665Z,7.70
2019-06-10T21:30:54.904Z,6.53
2019-06-10T21:33:19.427Z,7.00
2019-06-10T21:35:47.332Z,8.67
2019-06-10T21:38:14.209Z,7.90
2019-06-10T21:40:42.478Z,8.00
2019-06-10T21:43:08.608Z,7.00
2019-06-10T21:45:35.036Z,7.73
2019-06-10T21:48:02.188Z,6.43
2019-06-10T21:50:28.777Z,6.40
2019-06-10T21:52:54.827Z,6.40
2019-06-10T21:55:22.462Z,6.40
2019-06-10T21:57:49.121Z,5.97
2019-06-10T22:00:17.682Z,7.20
2019-06-10T22:02:45.146Z,6.53
2019-06-10T22:05:12.417Z,6.17
2019-06-10T22:07:38.564Z,6.70
2019-06-10T22:10:06.641Z,7.03
2019-06-10T22:12:32.691Z,6.10
2019-06-10T22:14:58.761Z,7.87
2019-06-10T22:17:24.825Z,6.23
2019-06-10T22:19:53.184Z,6.63
2019-06-10T22:22:18.846Z,6.90
2019-06-10T22:24:44.911Z,7.13
2019-06-10T22:27:12.881Z,7.00
2019-06-10T22:29:38.952Z,7.80
2019-06-10T22:32:05.002Z,8.20
2019-06-10T22:34:32.886Z,7.90
2019-06-10T22:36:59.123Z,8.20
2019-06-10T22:39:25.190Z,8.10
2019-06-10T22:41:53.687Z,8.17
2019-06-10T22:44:19.224Z,7.33
2019-06-10T22:46:45.284Z,8.63
2019-06-10T22:49:13.523Z,8.37
2019-06-10T22:51:39.303Z,8.73
2019-06-10T22:54:05.377Z,7.50
2019-06-10T22:56:31.428Z,8.70
2019-06-10T22:58:57.503Z,8.00
2019-06-10T23:01:33.876Z,7.87
2019-06-10T23:03:52.147Z,8.80
2019-06-10T23:06:18.372Z,7.70
2019-06-10T23:08:44.444Z,7.70
2019-06-10T23:11:12.934Z,9.17
2019-06-10T23:13:38.530Z,7.77
2019-06-10T23:16:04.703Z,8.00
2019-06-10T23:18:32.041Z,8.00
2019-06-10T23:20:59.664Z,7.80
2019-06-10T23:23:26.271Z,8.50
2019-06-10T23:25:53.677Z,7.70
2019-06-10T23:28:22.067Z,8.83
2019-06-10T23:30:47.987Z,8.20
2019-06-10T23:33:14.044Z,8.13
2019-06-10T23:35:42.674Z,8.70
2019-06-10T23:38:08.080Z,8.03
2019-06-10T23:40:34.154Z,6.57
2019-06-10T23:43:01.680Z,7.27
2019-06-10T23:45:28.196Z,7.60
2019-06-10T23:47:56.141Z,7.77
2019-06-10T23:50:22.627Z,8.20
2019-06-10T23:52:48.897Z,8.63
2019-06-10T23:55:15.063Z,7.23
2019-06-10T23:57:42.140Z,7.43
